San Borja, Bolivia
Current Conditions -  °F | °C
As of 12:00 PM on Sunday 25 Jan 2015 (Local Time) from SLTR Reporting Station
Rain Showers Rain Showers  
Wind Chill: 79°   Ceiling: 20000
Heat Index: 82°   Visibility: 4mi
Dew Point: 73°   Wind: 5mph
Humidity: 83%   Direction: 230°SW
Pressure: 29.88"   Gusts: NA
Location:  14.82°S, 66.85°W
Report Text: SLTR 251600Z 23004KT 7000 VCSH SCT006 FEW020CB OVC200 26/23 Q1012
Loading
Personal Weather Stations






























Interactive Weather Map New forecast layout! Learn more

10-Day Weather Forecast

Advertisements
Track Severe Weather on mobile